Time;durP1;ratioP1;P1;durP2;ratioP2;P2;SDS_P1;SDS_P2;PMS_P1;PMS_P2;Temp;Humidity;BMP_temperature;BMP_pressure;BME280_temperature;BME280_humidity;BME280_pressure;Samples;Min_cycle;Max_cycle;Signal;HPM_P1;HPM_P2
2022/06/12 04:22:59;;;;;;;9.25;6.32;;;;;;;13.32;100.00;100796.88;5090608;28;20197;-80
2022/06/12 04:25:32;;;;;;;6.80;5.85;;;;;;;13.37;100.00;100799.03;5089061;28;20530;-81
2022/06/12 04:27:58;;;;;;;13.85;7.95;;;;;;;13.43;100.00;100791.13;5088813;28;20135;-80
2022/06/12 04:30:31;;;;;;;11.02;7.00;;;;;;;13.49;100.00;100793.06;5096039;22;20615;-74
2022/06/12 04:33:29;;;;;;;9.02;6.30;;;;;;;13.57;100.00;100800.22;5068438;28;20064;-74
2022/06/12 04:35:58;;;;;;;8.40;5.53;;;;;;;13.64;100.00;100805.69;5068049;28;20045;-74
2022/06/12 04:38:25;;;;;;;8.13;6.50;;;;;;;13.71;100.00;100806.63;5068564;28;20123;-74
2022/06/12 04:40:52;;;;;;;12.27;6.57;;;;;;;13.77;100.00;100805.91;5080216;28;20044;-74
2022/06/12 04:43:18;;;;;;;9.32;5.93;;;;;;;13.89;100.00;100808.97;5088425;28;20044;-74
2022/06/12 04:45:44;;;;;;;8.65;6.10;;;;;;;13.99;100.00;100809.56;5088765;28;20033;-74
2022/06/12 04:48:18;;;;;;;8.82;5.07;;;;;;;14.05;100.00;100800.78;5088744;28;20465;-74
2022/06/12 04:50:43;;;;;;;11.43;6.18;;;;;;;14.18;100.00;100810.88;5088576;28;20443;-74
2022/06/12 04:53:09;;;;;;;8.05;6.03;;;;;;;14.26;100.00;100811.63;5088246;28;20028;-74
2022/06/12 04:55:34;;;;;;;8.02;5.28;;;;;;;14.34;100.00;100800.84;5088546;28;20139;-74
2022/06/12 04:58:01;;;;;;;6.50;4.90;;;;;;;14.49;100.00;100802.72;5087217;28;20032;-74
2022/06/12 05:00:27;;;;;;;8.85;5.60;;;;;;;14.61;100.00;100807.44;5088393;28;20032;-74
2022/06/12 05:02:54;;;;;;;7.35;4.82;;;;;;;14.70;100.00;100808.16;5086835;28;20044;-74
2022/06/12 05:05:19;;;;;;;6.50;4.65;;;;;;;14.80;100.00;100808.72;5088312;28;20115;-74
2022/06/12 05:07:45;;;;;;;10.10;4.80;;;;;;;14.93;100.00;100818.75;5087099;28;20112;-74
2022/06/12 05:10:14;;;;;;;6.95;4.93;;;;;;;15.02;100.00;100812.25;5086761;28;20036;-75
2022/06/12 05:12:40;;;;;;;5.25;4.57;;;;;;;15.11;100.00;100807.59;5087894;28;20028;-74
2022/06/12 05:15:06;;;;;;;7.85;4.40;;;;;;;15.27;100.00;100815.44;5088120;28;20110;-74
2022/06/12 05:17:32;;;;;;;8.93;4.95;;;;;;;15.43;99.98;100809.81;5088421;28;20431;-74
2022/06/12 05:19:57;;;;;;;6.22;4.88;;;;;;;15.63;98.41;100809.19;5088004;28;20048;-74
2022/06/12 05:22:25;;;;;;;7.53;4.57;;;;;;;15.72;97.04;100808.88;5086269;28;20068;-74
2022/06/12 05:24:50;;;;;;;;;;;;;;;15.80;96.74;100813.28;5087190;28;20056;-75
2022/06/12 05:27:20;;;;;;;6.03;3.83;;;;;;;15.86;95.59;100814.38;5088069;28;20356;-75
2022/06/12 05:29:46;;;;;;;5.78;4.32;;;;;;;15.91;95.13;100812.78;5088186;28;20039;-74
2022/06/12 05:32:18;;;;;;;8.20;4.85;;;;;;;16.01;94.75;100818.63;5084394;28;20542;-75
2022/06/12 05:34:44;;;;;;;6.95;4.03;;;;;;;16.10;94.78;100815.78;5074214;28;20074;-74
2022/06/12 05:37:10;;;;;;;7.18;4.88;;;;;;;16.17;94.56;100808.59;5074169;28;20036;-75
2022/06/12 05:39:37;;;;;;;7.43;4.35;;;;;;;16.28;95.24;100814.25;5073907;28;20512;-74
2022/06/12 05:42:03;;;;;;;7.43;5.70;;;;;;;16.37;94.57;100814.13;5073786;28;20071;-73
2022/06/12 05:44:29;;;;;;;7.20;5.60;;;;;;;16.48;95.06;100811.69;5074164;28;20044;-75
2022/06/12 05:46:55;;;;;;;8.10;6.43;;;;;;;16.60;96.43;100811.16;5074131;28;20036;-75
2022/06/12 05:49:20;;;;;;;9.15;4.72;;;;;;;16.72;96.60;100815.78;5072862;28;20040;-75
2022/06/12 05:51:45;;;;;;;9.88;5.50;;;;;;;16.79;93.09;100816.66;5073880;28;20044;-75
2022/06/12 05:54:11;;;;;;;8.45;5.60;;;;;;;16.93;91.55;100817.53;5073987;28;20045;-75
2022/06/12 05:56:38;;;;;;;7.78;5.30;;;;;;;17.11;90.29;100810.78;5074202;28;20121;-76
2022/06/12 05:59:04;;;;;;;7.27;5.27;;;;;;;17.63;88.17;100807.38;5073966;28;20036;-76
2022/06/12 06:01:30;;;;;;;8.30;5.30;;;;;;;17.92;85.42;100810.72;5073607;28;20040;-76
2022/06/12 06:03:56;;;;;;;10.13;5.53;;;;;;;17.97;84.50;100809.06;5073786;28;20033;-75
2022/06/12 06:06:29;;;;;;;9.13;5.50;;;;;;;18.02;83.94;100827.31;5075318;28;20029;-75
2022/06/12 06:08:55;;;;;;;10.50;6.05;;;;;;;18.02;83.81;100814.66;5073950;28;20048;-75
2022/06/12 06:11:21;;;;;;;6.75;5.00;;;;;;;18.04;85.78;100815.28;5073767;28;20028;-75
2022/06/12 06:13:47;;;;;;;6.47;5.40;;;;;;;18.07;85.21;100814.88;5073530;28;20520;-76
2022/06/12 06:16:13;;;;;;;12.40;6.68;;;;;;;18.12;84.50;100817.75;5073674;28;20036;-76
2022/06/12 06:18:40;;;;;;;8.88;5.95;;;;;;;18.18;85.29;100816.91;5074113;28;20040;-77
2022/06/12 06:21:11;;;;;;;;;;;;;;;18.28;84.01;100821.06;5076582;28;20041;-77
2022/06/12 06:23:38;;;;;;;12.23;7.80;;;;;;;18.36;81.49;100813.56;5073694;28;19912;-76
2022/06/12 06:26:04;;;;;;;10.65;6.72;;;;;;;18.49;81.44;100819.97;5073639;28;20462;-77
2022/06/12 06:28:30;;;;;;;9.10;6.95;;;;;;;18.64;82.20;100823.25;5072356;28;20041;-76
2022/06/12 06:30:56;;;;;;;11.85;6.63;;;;;;;18.79;78.83;100818.47;5073798;28;20044;-76
2022/06/12 06:33:22;;;;;;;10.05;6.90;;;;;;;18.88;77.87;100821.75;5073031;28;20063;-75
2022/06/12 06:35:49;;;;;;;10.02;6.53;;;;;;;18.93;77.76;100819.25;5073901;28;20481;-77
2022/06/12 06:38:14;;;;;;;12.30;6.72;;;;;;;19.01;78.28;100816.31;5073698;28;20055;-77
2022/06/12 06:40:40;;;;;;;8.82;6.97;;;;;;;19.21;76.02;100811.63;5073192;28;20036;-77
2022/06/12 06:43:07;;;;;;;7.97;6.00;;;;;;;19.21;76.63;100814.31;5072721;28;20048;-76
2022/06/12 06:48:18;;;;;;;10.38;6.57;;;;;;;19.42;74.77;100812.34;5062989;28;20036;-76
2022/06/12 06:50:44;;;;;;;10.63;6.93;;;;;;;19.44;75.34;100813.78;5071279;28;20727;-75
2022/06/12 06:53:11;;;;;;;8.85;5.82;;;;;;;19.55;74.71;100822.22;5073184;28;20040;-78
2022/06/12 06:55:37;;;;;;;11.07;6.43;;;;;;;19.64;74.44;100824.50;5073566;28;20036;-78
2022/06/12 06:58:11;;;;;;;8.95;6.22;;;;;;;19.84;75.23;100818.94;5073897;28;20088;-78
2022/06/12 07:00:38;;;;;;;10.85;6.55;;;;;;;19.87;74.64;100818.47;5073087;28;20044;-77
2022/06/12 07:03:04;;;;;;;11.95;6.45;;;;;;;19.98;72.83;100812.38;5073800;28;20040;-78
2022/06/12 07:05:29;;;;;;;10.18;7.15;;;;;;;20.03;72.20;100811.72;5072866;28;20043;-78
2022/06/12 07:07:55;;;;;;;8.75;6.00;;;;;;;20.18;71.89;100817.59;5072248;28;20658;-78
2022/06/12 07:10:24;;;;;;;11.80;6.60;;;;;;;20.23;70.80;100817.75;5074152;28;20420;-79
2022/06/12 07:12:51;;;;;;;9.63;5.70;;;;;;;20.36;70.97;100819.50;5073502;28;20060;-78
2022/06/12 07:15:18;;;;;;;9.70;6.28;;;;;;;20.48;69.55;100812.34;5073677;28;20113;-77
2022/06/12 07:17:45;;;;;;;10.00;5.97;;;;;;;20.54;68.22;100810.63;5072934;28;20044;-78
2022/06/12 07:20:13;;;;;;;7.55;5.55;;;;;;;20.60;68.24;100809.69;5073861;28;20049;-77
2022/06/12 07:22:39;;;;;;;8.27;5.32;;;;;;;20.75;68.27;100812.84;5072150;28;20040;-78
2022/06/12 07:25:06;;;;;;;7.63;5.80;;;;;;;20.80;67.86;100806.75;5073071;28;20045;-79
2022/06/12 07:27:31;;;;;;;8.20;5.77;;;;;;;20.90;67.85;100801.63;5074471;28;20107;-80
2022/06/12 07:29:57;;;;;;;9.00;5.97;;;;;;;21.03;68.50;100800.63;5077332;28;20082;-79
2022/06/12 07:32:23;;;;;;;10.18;5.22;;;;;;;21.14;66.36;100805.28;5077763;28;20449;-79
2022/06/12 07:34:48;;;;;;;7.82;5.05;;;;;;;21.21;68.07;100807.91;5081358;28;20066;-79
2022/06/12 07:37:14;;;;;;;7.53;5.20;;;;;;;21.42;67.25;100798.47;5079648;28;20041;-81
2022/06/12 07:39:40;;;;;;;7.13;4.93;;;;;;;21.48;65.95;100794.81;5076561;28;20044;-78
2022/06/12 07:42:06;;;;;;;7.97;5.53;;;;;;;21.53;65.36;100800.38;5074905;28;20032;-78
2022/06/12 07:44:34;;;;;;;9.50;5.75;;;;;;;21.58;64.88;100795.91;5073308;28;20485;-79
2022/06/12 07:46:59;;;;;;;;;;;;;;;21.74;65.35;100799.81;5069615;28;20036;-79
2022/06/12 07:49:27;;;;;;;7.18;5.70;;;;;;;21.83;64.68;100793.00;5060976;28;20318;-79
2022/06/12 07:51:55;;;;;;;8.10;5.72;;;;;;;21.89;64.11;100780.38;5072736;28;20043;-80
2022/06/12 07:54:21;;;;;;;9.38;5.43;;;;;;;21.95;63.22;100782.97;5074918;28;20068;-80
2022/06/12 07:56:47;;;;;;;8.75;5.78;;;;;;;22.10;64.84;100790.66;5056128;28;20037;-79
2022/06/12 07:59:13;;;;;;;6.95;4.90;;;;;;;22.23;64.57;100786.91;5074206;28;20087;-79
2022/06/12 08:01:39;;;;;;;7.20;4.78;;;;;;;22.28;63.27;100783.47;5074338;28;20128;-79
2022/06/12 08:04:07;;;;;;;9.73;5.60;;;;;;;22.56;64.34;100780.84;5075781;28;20072;-79
2022/06/12 08:06:33;;;;;;;7.10;4.57;;;;;;;22.62;62.16;100776.34;5075430;28;20596;-79
2022/06/12 08:08:59;;;;;;;6.60;4.88;;;;;;;22.66;61.44;100770.19;5075743;28;20061;-79
2022/06/12 08:11:25;;;;;;;8.25;5.20;;;;;;;22.81;62.33;100769.66;5072933;28;20036;-76
2022/06/12 08:13:52;;;;;;;8.35;5.18;;;;;;;23.07;62.14;100771.03;5071433;28;20080;-77
2022/06/12 08:16:20;;;;;;;5.10;4.60;;;;;;;23.11;60.71;100766.75;5073950;28;20475;-81
2022/06/12 08:18:46;;;;;;;7.55;4.90;;;;;;;23.32;61.34;100765.22;5072271;28;20068;-75
2022/06/12 08:21:15;;;;;;;8.02;4.50;;;;;;;23.47;59.73;100759.22;5076137;28;20052;-77
2022/06/12 08:23:43;;;;;;;8.93;4.57;;;;;;;23.59;59.30;100756.44;5071778;28;20037;-80
2022/06/12 08:26:19;;;;;;;9.50;5.13;;;;;;;23.66;58.26;100760.66;5078900;28;20656;-79
2022/06/12 08:28:49;;;;;;;9.07;4.57;;;;;;;23.81;57.51;100752.78;5077113;28;20088;-79
2022/06/12 08:31:23;;;;;;;6.82;4.28;;;;;;;24.05;58.92;100755.28;5076235;28;20465;-80
2022/06/12 08:33:52;;;;;;;6.55;3.80;;;;;;;24.10;56.56;100755.34;5080190;28;20036;-79
2022/06/12 08:36:20;;;;;;;6.10;4.38;;;;;;;24.34;55.73;100756.00;5076453;28;20123;-80
2022/06/12 08:38:47;;;;;;;9.00;4.75;;;;;;;24.44;55.27;100761.56;5076740;28;20400;-80
2022/06/12 08:41:35;;;;;;;5.82;4.63;;;;;;;24.64;54.28;100759.09;5075227;28;20068;-79
2022/06/12 08:44:04;;;;;;;8.68;4.90;;;;;;;24.81;54.04;100752.75;5075447;28;20473;-79
2022/06/12 08:46:36;;;;;;;5.13;3.92;;;;;;;24.75;52.67;100759.22;5073664;28;20067;-79
2022/06/12 08:49:15;;;;;;;9.70;4.25;;;;;;;24.94;52.15;100757.81;5075938;28;20060;-81
2022/06/12 08:52:04;;;;;;;7.07;3.83;;;;;;;24.91;51.49;100752.88;5074652;28;20036;-80
2022/06/12 08:54:36;;;;;;;6.22;3.65;;;;;;;25.02;51.85;100754.63;5075114;28;20093;-79
2022/06/12 08:57:09;;;;;;;4.43;3.33;;;;;;;25.24;51.02;100759.25;5072282;28;20397;-80
2022/06/12 08:59:42;;;;;;;5.72;4.32;;;;;;;25.48;51.75;100751.53;5072331;28;20131;-80
2022/06/12 09:02:36;;;;;;;5.65;4.05;;;;;;;25.67;51.26;100750.88;5072679;28;20096;-78
2022/06/12 09:05:05;;;;;;;5.32;3.50;;;;;;;25.96;53.68;100753.31;5079467;28;20043;-79
2022/06/12 09:07:51;;;;;;;7.07;4.05;;;;;;;26.23;52.49;100737.63;5074183;28;20036;-80
2022/06/12 09:10:39;;;;;;;4.25;3.50;;;;;;;26.40;49.58;100742.09;5081034;28;20442;-80
2022/06/12 09:13:07;;;;;;;5.82;2.95;;;;;;;26.15;47.65;100734.59;5076134;28;20453;-80
2022/06/12 09:16:00;;;;;;;4.82;2.63;;;;;;;26.54;45.96;100742.44;5078224;28;20029;-79
2022/06/12 09:18:45;;;;;;;5.20;3.08;;;;;;;26.41;45.37;100730.94;5076572;28;20366;-78
2022/06/12 09:21:10;;;;;;;5.78;3.45;;;;;;;26.54;46.25;100729.63;5075039;28;20036;-77
2022/06/12 09:23:48;;;;;;;9.65;3.25;;;;;;;26.74;49.19;100726.13;5074704;28;20063;-76
2022/06/12 09:26:17;;;;;;;6.80;3.28;;;;;;;26.89;47.49;100728.91;5073484;28;20048;-76
2022/06/12 09:29:35;;;;;;;5.05;2.80;;;;;;;27.15;45.54;100727.06;5075671;28;20040;-78
2022/06/12 09:32:09;;;;;;;4.97;2.80;;;;;;;27.27;43.85;100719.41;5049262;28;20044;-79
2022/06/12 09:35:02;;;;;;;3.78;2.72;;;;;;;27.46;44.86;100719.69;5061480;28;20056;-79
2022/06/12 09:40:39;;;;;;;5.55;3.25;;;;;;;27.92;43.71;100718.84;5055498;28;20036;-79
2022/06/12 09:43:33;;;;;;;5.38;3.00;;;;;;;28.12;42.87;100719.63;5062618;28;20064;-80
2022/06/12 09:46:03;;;;;;;5.05;2.67;;;;;;;28.25;42.94;100717.38;5061236;28;20056;-80
2022/06/12 09:48:55;;;;;;;5.18;3.00;;;;;;;28.49;43.16;100709.34;5060614;28;20033;-80
2022/06/12 09:51:39;;;;;;;4.38;2.30;;;;;;;28.63;46.26;100713.16;5061381;28;20056;-79
2022/06/12 09:54:45;;;;;;;4.35;2.75;;;;;;;28.79;42.27;100716.59;5059452;28;20041;-81
2022/06/12 09:57:27;;;;;;;4.97;2.30;;;;;;;29.01;41.14;100711.53;5061966;28;20033;-79
2022/06/12 10:00:01;;;;;;;5.55;3.75;;;;;;;29.27;39.39;100708.63;5057623;28;20059;-79
2022/06/12 10:02:47;;;;;;;3.92;2.35;;;;;;;29.12;40.70;100707.63;5058632;28;20049;-78
2022/06/12 10:05:26;;;;;;;5.07;3.03;;;;;;;29.27;39.60;100706.69;5057962;28;20041;-79
2022/06/12 10:08:05;;;;;;;4.80;2.35;;;;;;;29.34;39.45;100692.66;5058694;28;20454;-79
2022/06/12 10:10:39;;;;;;;5.05;2.53;;;;;;;29.41;40.10;100691.22;5057128;28;20037;-80
2022/06/12 10:13:09;;;;;;;5.03;2.70;;;;;;;29.72;39.23;100685.47;5057922;28;20041;-81
2022/06/12 10:15:40;;;;;;;3.15;2.30;;;;;;;30.03;40.28;100685.94;5057414;28;20033;-80
2022/06/12 10:18:14;;;;;;;4.43;2.10;;;;;;;30.00;37.20;100686.56;5059149;28;20036;-78
2022/06/12 10:21:03;;;;;;;2.75;2.30;;;;;;;30.18;38.92;100671.25;5055886;28;20093;-77
2022/06/12 10:23:28;;;;;;;3.72;2.45;;;;;;;30.47;36.23;100666.47;5053432;28;20398;-78
2022/06/12 10:25:57;;;;;;;4.25;3.17;;;;;;;30.92;37.16;100669.69;5054510;28;20035;-78
2022/06/12 10:28:32;;;;;;;4.85;2.50;;;;;;;31.22;36.16;100673.06;5070002;28;20140;-78
2022/06/12 10:31:16;;;;;;;2.30;2.10;;;;;;;31.55;37.08;100669.19;5074464;22;20044;-78
2022/06/12 10:33:42;;;;;;;4.30;2.20;;;;;;;31.63;35.10;100664.94;5072760;28;20052;-78
2022/06/12 10:36:18;;;;;;;3.60;2.53;;;;;;;31.56;35.12;100656.25;5072427;28;20089;-77
2022/06/12 10:38:43;;;;;;;6.38;3.50;;;;;;;31.59;35.13;100652.91;5072061;28;20032;-77
2022/06/12 10:42:01;;;;;;;3.67;2.20;;;;;;;31.82;34.32;100656.59;5075891;28;20059;-79
2022/06/12 10:44:32;;;;;;;3.60;2.85;;;;;;;32.20;34.47;100648.13;5065568;28;20048;-78
2022/06/12 10:47:22;;;;;;;4.63;2.70;;;;;;;32.28;33.25;100650.19;5075213;28;20043;-77
2022/06/12 10:50:01;;;;;;;3.97;2.60;;;;;;;32.60;33.07;100647.28;5077237;28;20453;-77
2022/06/12 10:52:26;;;;;;;2.50;2.00;;;;;;;32.47;33.39;100642.59;5069802;28;20039;-77
2022/06/12 10:54:52;;;;;;;2.47;2.00;;;;;;;33.01;33.46;100640.81;5061236;28;20041;-77
2022/06/12 10:57:36;;;;;;;5.10;3.87;;;;;;;32.89;32.91;100637.78;5063831;28;20416;-77
2022/06/12 11:00:05;;;;;;;3.83;2.58;;;;;;;33.47;33.34;100637.69;5056313;28;20041;-78
2022/06/12 11:02:53;;;;;;;4.43;3.08;;;;;;;33.31;33.44;100636.44;5054100;28;20032;-78
2022/06/12 11:05:40;;;;;;;4.20;3.30;;;;;;;33.69;32.12;100630.47;5056341;28;20041;-79
2022/06/12 11:08:24;;;;;;;3.45;2.42;;;;;;;33.82;32.79;100631.50;5056392;28;20028;-78
2022/06/12 11:11:03;;;;;;;3.55;2.10;;;;;;;33.65;31.76;100627.56;5056541;28;20112;-79
2022/06/12 11:13:44;;;;;;;3.45;2.08;;;;;;;32.80;30.35;100620.31;5054153;28;20040;-78
2022/06/12 11:16:29;;;;;;;4.25;2.53;;;;;;;33.28;30.12;100617.75;5054656;28;20440;-78
2022/06/12 11:19:04;;;;;;;6.47;2.95;;;;;;;33.04;30.98;100611.75;5054374;28;20040;-77
2022/06/12 11:21:47;;;;;;;4.35;2.65;;;;;;;32.99;31.33;100607.19;5054135;28;20028;-77
2022/06/12 11:24:44;;;;;;;2.72;2.00;;;;;;;33.57;32.14;100608.97;5055103;28;20080;-77
2022/06/12 11:27:15;;;;;;;4.65;2.35;;;;;;;34.14;30.76;100605.44;5049394;28;20060;-79
2022/06/12 11:29:41;;;;;;;2.85;1.83;;;;;;;34.48;29.33;100605.50;5055876;28;20052;-78
2022/06/12 11:32:21;;;;;;;4.03;2.23;;;;;;;34.30;33.28;100603.84;5052620;28;20465;-77
2022/06/12 11:35:01;;;;;;;3.78;1.95;;;;;;;34.41;29.07;100604.34;5053310;28;20075;-77
2022/06/12 11:38:06;;;;;;;3.08;1.85;;;;;;;34.95;29.14;100596.53;5053521;28;20079;-77
2022/06/12 11:40:46;;;;;;;2.85;1.75;;;;;;;34.79;29.43;100599.00;5050870;28;20056;-78
2022/06/12 11:43:32;;;;;;;3.80;1.67;;;;;;;35.24;28.64;100588.34;5054265;28;20160;-77
2022/06/12 11:46:37;;;;;;;3.20;1.77;;;;;;;35.53;27.66;100584.00;5055701;28;20088;-79
2022/06/12 11:49:24;;;;;;;3.28;1.90;;;;;;;35.59;27.25;100577.94;5055048;28;20567;-77
2022/06/12 11:52:17;;;;;;;1.98;1.70;;;;;;;35.35;28.12;100580.50;5055355;28;20033;-78
2022/06/12 11:55:13;;;;;;;4.22;2.30;;;;;;;34.96;27.65;100592.66;5072419;28;20037;-77
2022/06/12 11:57:57;;;;;;;3.50;2.03;;;;;;;34.23;32.03;100586.91;5063393;28;20052;-77
2022/06/12 12:00:32;;;;;;;4.85;2.35;;;;;;;34.70;30.01;100584.38;5070967;28;20032;-77
2022/06/12 12:03:42;;;;;;;3.10;1.73;;;;;;;34.36;31.63;100583.19;5071578;28;20401;-77
2022/06/12 12:06:32;;;;;;;3.88;2.05;;;;;;;34.80;30.97;100584.81;5054663;28;20516;-77
2022/06/12 12:09:16;;;;;;;4.38;1.80;;;;;;;34.82;26.80;100576.19;5071729;28;20036;-77
2022/06/12 12:11:46;;;;;;;7.22;2.17;;;;;;;34.94;28.52;100561.72;5071161;28;20064;-77
2022/06/12 12:14:23;;;;;;;3.45;1.90;;;;;;;35.19;29.59;100560.84;5072424;28;20400;-76
2022/06/12 12:16:58;;;;;;;2.47;1.95;;;;;;;35.41;28.65;100561.72;5073863;28;20036;-78
2022/06/12 12:19:55;;;;;;;2.47;1.90;;;;;;;34.55;30.11;100564.34;5074617;28;20037;-78
2022/06/12 12:22:46;;;;;;;5.22;2.97;;;;;;;34.17;31.36;100563.34;5070922;28;20108;-78
2022/06/12 12:25:19;;;;;;;6.68;4.80;;;;;;;33.70;32.55;100555.59;5074086;28;20042;-78
2022/06/12 12:27:49;;;;;;;2.97;1.75;;;;;;;34.04;28.63;100545.78;5073184;28;20116;-78
2022/06/12 12:30:29;;;;;;;3.58;2.20;;;;;;;34.35;29.01;100539.28;5074485;28;20035;-79
2022/06/12 12:32:57;;;;;;;4.35;3.28;;;;;;;34.11;30.59;100540.59;5072262;28;20473;-78
2022/06/12 12:41:15;;;;;;;4.60;2.67;;;;;;;32.85;31.49;100540.22;5073738;28;20041;-77
2022/06/12 12:43:56;;;;;;;2.28;1.67;;;;;;;31.97;30.72;100531.56;5075538;28;20040;-77
2022/06/12 12:46:24;;;;;;;2.65;1.95;;;;;;;31.98;30.92;100530.44;5075431;28;20040;-77
2022/06/12 12:48:53;;;;;;;3.95;1.70;;;;;;;32.60;32.27;100527.88;5075386;28;20072;-77
2022/06/12 12:51:46;;;;;;;4.05;2.17;;;;;;;32.38;31.97;100524.00;5075827;28;20076;-77
2022/06/12 12:54:16;;;;;;;2.88;1.80;;;;;;;32.62;31.75;100528.41;5075604;28;20049;-77
2022/06/12 12:56:59;;;;;;;5.28;2.08;;;;;;;32.48;32.58;100533.97;5073589;28;20043;-77
2022/06/12 12:59:43;;;;;;;3.80;2.65;;;;;;;33.01;32.00;100521.38;5074908;28;20575;-76
2022/06/12 13:02:35;;;;;;;3.10;2.15;;;;;;;33.52;27.80;100534.59;5074456;28;20396;-76
2022/06/12 13:05:15;;;;;;;3.95;2.42;;;;;;;33.28;29.18;100523.91;5074742;28;20445;-75
2022/06/12 13:07:47;;;;;;;2.60;1.70;;;;;;;33.86;29.95;100510.94;5074909;28;20079;-77
2022/06/12 13:10:21;;;;;;;3.05;1.83;;;;;;;34.39;29.59;100521.72;5074862;28;20036;-77
2022/06/12 13:13:06;;;;;;;2.78;1.60;;;;;;;34.21;28.76;100512.63;5056205;28;20039;-77
2022/06/12 13:15:45;;;;;;;2.78;1.90;;;;;;;34.22;28.00;100519.75;5074526;28;20036;-76
2022/06/12 13:18:29;;;;;;;2.50;1.63;;;;;;;33.65;28.45;100511.56;5074562;28;20433;-77
2022/06/12 13:21:06;;;;;;;3.53;1.80;;;;;;;32.82;29.71;100511.31;5072765;28;20039;-76
2022/06/12 13:23:54;;;;;;;1.83;1.70;;;;;;;32.30;29.47;100515.63;5073851;28;20052;-76
2022/06/12 13:26:22;;;;;;;3.58;1.60;;;;;;;31.79;31.10;100506.59;5067288;28;20171;-74
2022/06/12 13:28:57;;;;;;;7.38;2.45;;;;;;;32.20;31.96;100502.09;5074174;28;20123;-74
2022/06/12 13:31:23;;;;;;;3.85;1.90;;;;;;;32.03;33.44;100503.59;5055834;28;20037;-74
2022/06/12 13:33:55;;;;;;;3.57;1.77;;;;;;;32.08;30.93;100492.47;5073927;28;20048;-74
2022/06/12 13:36:47;;;;;;;3.13;1.67;;;;;;;32.08;30.55;100486.09;5073997;28;20040;-74
2022/06/12 13:39:21;;;;;;;2.97;1.70;;;;;;;32.29;32.32;100479.00;5072969;28;20075;-73
2022/06/12 13:42:01;;;;;;;4.45;2.63;;;;;;;32.07;32.87;100474.28;5073681;28;20469;-74
2022/06/12 13:44:31;;;;;;;2.67;1.90;;;;;;;31.63;32.34;100474.19;5074169;28;20123;-74
2022/06/12 13:47:13;;;;;;;2.08;1.73;;;;;;;31.21;33.10;100476.09;5074238;28;20039;-74
2022/06/12 13:49:46;;;;;;;2.83;2.05;;;;;;;31.18;32.39;100465.72;5072736;28;20056;-75
2022/06/12 13:52:23;;;;;;;3.65;1.95;;;;;;;31.13;33.53;100461.13;5073469;28;20389;-75
2022/06/12 13:54:49;;;;;;;6.10;1.80;;;;;;;30.58;33.03;100443.69;5074382;28;20060;-78
2022/06/12 13:57:29;;;;;;;2.67;1.70;;;;;;;30.45;33.01;100450.78;5075640;28;20078;-77
2022/06/12 13:59:54;;;;;;;2.92;1.70;;;;;;;30.82;32.85;100449.88;5075449;28;20119;-78
2022/06/12 14:02:24;;;;;;;2.55;2.05;;;;;;;30.97;34.50;100457.88;5075693;28;20119;-77
2022/06/12 14:05:00;;;;;;;3.90;2.72;;;;;;;31.05;34.62;100456.34;5076135;28;20047;-78
2022/06/12 14:07:31;;;;;;;2.95;1.70;;;;;;;30.97;33.13;100455.13;5072955;28;20523;-76
2022/06/12 14:10:01;;;;;;;4.35;3.08;;;;;;;31.13;34.17;100438.31;5073813;28;20075;-77
2022/06/12 14:12:31;;;;;;;4.32;3.25;;;;;;;31.20;33.95;100442.28;5073245;28;20032;-76
2022/06/12 14:14:56;;;;;;;7.90;4.82;;;;;;;31.37;33.58;100436.19;5073456;28;20041;-77
2022/06/12 14:17:24;;;;;;;4.10;2.28;;;;;;;31.45;33.90;100442.91;5073694;28;20036;-77
2022/06/12 14:20:15;;;;;;;3.38;1.98;;;;;;;31.32;31.32;100434.34;5073707;28;20032;-76
2022/06/12 14:22:49;;;;;;;3.97;1.70;;;;;;;31.03;32.15;100439.31;5071568;28;20041;-76
2022/06/12 14:25:25;;;;;;;2.25;1.83;;;;;;;30.89;34.28;100441.22;5073477;28;20096;-76
2022/06/12 14:28:23;;;;;;;3.20;2.17;;;;;;;30.95;34.32;100442.78;5073659;28;20477;-76
2022/06/12 14:31:09;;;;;;;2.92;1.90;;;;;;;30.62;34.95;100437.28;5073205;28;20076;-75
2022/06/12 14:33:38;;;;;;;2.80;1.70;;;;;;;30.52;34.84;100445.72;5073094;28;20042;-76
2022/06/12 14:36:24;;;;;;;4.68;2.25;;;;;;;30.57;35.22;100436.56;5074647;28;20054;-76
2022/06/12 14:38:49;;;;;;;3.00;2.03;;;;;;;30.44;36.84;100438.97;5073075;28;20040;-76
2022/06/12 14:41:24;;;;;;;3.63;2.75;;;;;;;30.40;36.63;100437.97;5072065;28;20131;-75
2022/06/12 14:43:51;;;;;;;2.97;1.80;;;;;;;30.23;36.81;100437.69;5072997;28;20040;-76
2022/06/12 14:46:22;;;;;;;4.18;2.30;;;;;;;30.17;36.48;100438.88;5073001;28;20037;-76
2022/06/12 14:48:49;;;;;;;3.45;1.90;;;;;;;30.34;36.56;100430.09;5073293;28;20037;-77
2022/06/12 14:51:15;;;;;;;2.20;1.88;;;;;;;30.09;36.34;100417.56;5077820;28;20025;-76
2022/06/12 14:53:40;;;;;;;2.60;1.90;;;;;;;30.29;36.85;100428.25;5077136;28;20036;-75
2022/06/12 14:56:13;;;;;;;3.70;2.05;;;;;;;30.16;37.76;100418.03;5071517;28;20425;-76
2022/06/12 14:58:40;;;;;;;4.90;2.72;;;;;;;29.89;38.13;100424.19;5072638;28;20041;-75
2022/06/12 15:01:12;;;;;;;3.83;2.25;;;;;;;29.97;37.30;100412.53;5072591;28;20397;-74
2022/06/12 15:03:38;;;;;;;3.13;1.98;;;;;;;29.87;38.21;100416.25;5072247;28;20456;-74
2022/06/12 15:06:04;;;;;;;4.20;2.22;;;;;;;29.91;39.42;100409.03;5071656;28;20028;-75
2022/06/12 15:08:29;;;;;;;2.75;2.10;;;;;;;29.92;37.94;100398.88;5072391;28;20043;-76
2022/06/12 15:10:57;;;;;;;3.25;1.83;;;;;;;29.98;37.36;100397.69;5076298;28;20044;-78
2022/06/12 15:13:24;;;;;;;3.58;2.10;;;;;;;29.97;36.37;100396.88;5073467;28;20040;-78
2022/06/12 15:15:51;;;;;;;4.78;2.00;;;;;;;30.04;37.20;100392.94;5072145;28;20455;-78
2022/06/12 15:18:17;;;;;;;5.05;2.97;;;;;;;29.96;35.96;100388.94;5073197;28;20512;-78
2022/06/12 15:20:47;;;;;;;4.22;2.40;;;;;;;29.95;37.53;100385.38;5072916;28;20036;-76
2022/06/12 15:23:16;;;;;;;15.40;3.17;;;;;;;29.89;39.65;100377.53;5074019;28;20119;-74
2022/06/12 15:31:16;;;;;;;3.28;2.55;;;;;;;29.95;36.09;100381.81;5072736;28;20405;-76
2022/06/12 15:33:42;;;;;;;2.85;1.80;;;;;;;30.02;35.49;100375.94;5070563;28;20470;-78
2022/06/12 15:36:09;;;;;;;3.88;2.60;;;;;;;29.99;35.88;100374.59;5070691;28;20405;-76
2022/06/12 15:38:35;;;;;;;5.28;2.00;;;;;;;29.94;35.72;100374.69;5072745;28;20035;-76
2022/06/12 15:41:02;;;;;;;2.00;1.73;;;;;;;29.96;33.33;100373.28;5072655;28;20116;-76
2022/06/12 15:43:27;;;;;;;3.70;2.00;;;;;;;29.96;35.51;100364.22;5072152;28;20043;-77
2022/06/12 15:45:53;;;;;;;2.42;1.70;;;;;;;29.89;34.95;100372.03;5072501;28;20028;-76
2022/06/12 15:48:19;;;;;;;2.83;1.85;;;;;;;29.87;34.28;100369.59;5054167;28;20543;-74
2022/06/12 15:50:45;;;;;;;4.95;2.00;;;;;;;29.73;34.56;100375.03;5071848;28;20032;-75
2022/06/12 15:53:11;;;;;;;4.80;2.50;;;;;;;29.68;34.08;100361.38;5071491;28;20036;-75
2022/06/12 15:55:37;;;;;;;2.17;1.65;;;;;;;29.52;34.81;100365.44;5072123;28;20040;-76
2022/06/12 15:58:02;;;;;;;3.92;1.75;;;;;;;29.43;34.93;100359.78;5070353;28;20558;-76
2022/06/12 16:00:28;;;;;;;2.90;2.15;;;;;;;29.31;37.40;100356.66;5071631;28;20036;-77
2022/06/12 16:02:54;;;;;;;1.92;1.50;;;;;;;29.25;36.21;100357.00;5071241;28;20047;-74
2022/06/12 16:05:21;;;;;;;1.55;1.42;;;;;;;29.27;36.40;100355.59;5071609;28;20077;-77
2022/06/12 16:07:47;;;;;;;2.97;1.48;;;;;;;29.34;36.11;100353.34;5071686;28;20040;-77
2022/06/12 16:10:13;;;;;;;3.33;1.70;;;;;;;29.38;36.13;100346.13;5070979;28;20051;-77
2022/06/12 16:12:40;;;;;;;3.67;1.45;;;;;;;29.38;36.31;100342.56;5071535;28;20040;-77
2022/06/12 16:15:06;;;;;;;;;;;;;;;29.30;36.68;100335.81;5072032;28;20528;-76
2022/06/12 16:17:32;;;;;;;3.03;1.63;;;;;;;29.35;37.20;100334.94;5070466;28;19913;-77
2022/06/12 16:19:58;;;;;;;2.28;1.60;;;;;;;29.36;37.29;100326.41;5071736;28;20156;-76
2022/06/12 16:22:23;;;;;;;4.28;2.00;;;;;;;29.27;36.24;100330.09;5053267;28;20485;-76
2022/06/12 16:24:49;;;;;;;3.67;2.10;;;;;;;29.29;36.83;100325.16;5071439;28;20044;-75
2022/06/12 16:27:14;;;;;;;3.92;2.70;;;;;;;29.21;38.24;100318.38;5053473;28;20044;-75
2022/06/12 16:29:40;;;;;;;3.22;1.83;;;;;;;29.22;38.14;100311.81;5071451;28;20036;-76